createdAt,value
2018-03-17T00:00:09.049Z,4.03
2018-03-17T00:02:36.635Z,4.37
2018-03-17T00:05:04.238Z,4.47
2018-03-17T00:07:35.199Z,4.80
2018-03-17T00:10:03.579Z,4.93
2018-03-17T00:12:31.175Z,5.33
2018-03-17T00:14:58.767Z,4.90
2018-03-17T00:17:26.353Z,5.40
2018-03-17T00:19:53.914Z,6.83
2018-03-17T00:22:21.509Z,4.70
2018-03-17T00:24:49.896Z,5.10
2018-03-17T00:27:18.402Z,4.07
2018-03-17T00:29:46.027Z,4.10
2018-03-17T00:32:14.354Z,4.43
2018-03-17T00:34:41.943Z,3.77
2018-03-17T00:37:09.551Z,4.63
2018-03-17T00:39:37.124Z,4.83
2018-03-17T00:42:04.763Z,4.80
2018-03-17T00:44:33.418Z,4.27
2018-03-17T00:47:00.976Z,4.20
2018-03-17T00:49:28.537Z,3.73
2018-03-17T00:51:56.125Z,4.30
2018-03-17T00:54:23.711Z,4.37
2018-03-17T00:56:51.298Z,5.20
2018-03-17T00:59:18.883Z,6.33
2018-03-17T01:01:46.468Z,7.47
2018-03-17T01:04:14.055Z,8.67
2018-03-17T01:06:41.673Z,8.93
2018-03-17T01:09:09.325Z,10.37
2018-03-17T01:11:36.898Z,9.53
2018-03-17T01:14:04.786Z,9.83
2018-03-17T01:16:32.382Z,11.30
2018-03-17T01:18:59.974Z,11.13
2018-03-17T01:21:27.639Z,10.00
2018-03-17T01:23:55.263Z,10.17
2018-03-17T01:26:23.603Z,12.27
2018-03-17T01:28:51.247Z,11.03
2018-03-17T01:31:18.847Z,10.63
2018-03-17T01:33:46.423Z,11.07
2018-03-17T01:36:14.022Z,13.80
2018-03-17T01:38:41.602Z,15.23
2018-03-17T01:41:09.172Z,17.43
2018-03-17T01:43:37.210Z,15.93
2018-03-17T01:46:04.776Z,17.20
2018-03-17T01:48:32.338Z,20.17
2018-03-17T01:50:59.935Z,23.63
2018-03-17T01:53:27.510Z,21.17
2018-03-17T01:55:55.091Z,21.47
2018-03-17T01:58:22.687Z,23.20
2018-03-17T02:00:50.265Z,20.73
2018-03-17T02:03:18.101Z,22.37
2018-03-17T02:05:46.458Z,21.53
2018-03-17T02:08:14.083Z,20.27
2018-03-17T02:10:41.683Z,19.13
2018-03-17T02:13:09.774Z,22.40
2018-03-17T02:15:38.136Z,19.53
2018-03-17T02:18:05.713Z,18.23
2018-03-17T02:20:33.305Z,22.53
2018-03-17T02:23:01.681Z,19.47
2018-03-17T02:25:29.265Z,20.33
2018-03-17T02:27:57.133Z,19.30
2018-03-17T02:30:24.706Z,21.20
2018-03-17T02:32:52.294Z,22.70
2018-03-17T02:35:19.895Z,20.07
2018-03-17T02:37:48.239Z,20.27
2018-03-17T02:40:16.182Z,20.03
2018-03-17T02:42:43.791Z,21.57
2018-03-17T02:45:11.367Z,20.13
2018-03-17T02:47:38.941Z,19.97
2018-03-17T02:50:07.298Z,17.90
2018-03-17T02:52:34.902Z,18.40
2018-03-17T02:55:02.941Z,18.87
2018-03-17T02:57:31.284Z,17.53
2018-03-17T02:59:58.859Z,18.60
2018-03-17T03:02:26.459Z,18.00
2018-03-17T03:04:54.023Z,18.77
2018-03-17T03:07:22.391Z,18.77
2018-03-17T03:09:50.114Z,19.33
2018-03-17T03:12:17.680Z,14.50
2018-03-17T03:14:45.260Z,13.23
2018-03-17T03:17:12.859Z,13.10
2018-03-17T03:19:40.434Z,13.13
2018-03-17T03:22:07.999Z,10.80
2018-03-17T03:24:35.624Z,9.63
2018-03-17T03:27:03.200Z,7.73
2018-03-17T03:29:31.546Z,6.77
2018-03-17T03:31:59.128Z,7.57
2018-03-17T03:34:26.702Z,7.10
2018-03-17T03:36:55.035Z,6.80
2018-03-17T03:39:23.387Z,7.03
2018-03-17T03:41:50.973Z,6.13
2018-03-17T03:44:18.532Z,6.67
2018-03-17T03:46:46.125Z,6.97
2018-03-17T03:49:13.682Z,5.77
2018-03-17T03:51:41.262Z,6.33
2018-03-17T03:54:08.848Z,6.67
2018-03-17T03:56:37.173Z,6.23
2018-03-17T03:59:04.746Z,6.77
2018-03-17T04:01:32.387Z,9.10
2018-03-17T04:03:59.956Z,8.30
2018-03-17T04:06:27.979Z,10.10
2018-03-17T04:08:55.623Z,11.40
2018-03-17T04:11:23.165Z,12.47
2018-03-17T04:13:51.036Z,13.03
2018-03-17T04:16:18.616Z,13.03
2018-03-17T04:18:46.206Z,12.97
2018-03-17T04:21:14.611Z,13.53
2018-03-17T04:23:42.181Z,13.50
2018-03-17T04:26:09.749Z,15.40
2018-03-17T04:28:37.450Z,16.23
2018-03-17T04:31:05.053Z,16.20
2018-03-17T04:33:33.402Z,15.87
2018-03-17T04:36:01.006Z,16.63
2018-03-17T04:38:29.347Z,16.30
2018-03-17T04:40:56.959Z,15.30
2018-03-17T04:43:25.319Z,15.40
2018-03-17T04:45:52.886Z,14.27
2018-03-17T04:48:20.465Z,13.17
2018-03-17T04:50:48.827Z,13.27
2018-03-17T04:53:16.390Z,11.80
2018-03-17T04:55:44.751Z,12.70
2018-03-17T04:58:12.343Z,11.83
2018-03-17T05:00:39.935Z,11.47
2018-03-17T05:03:07.536Z,10.60
2018-03-17T05:05:35.159Z,9.43
2018-03-17T05:08:02.727Z,9.30
2018-03-17T05:10:30.323Z,8.97
2018-03-17T05:12:57.910Z,8.73
2018-03-17T05:15:25.684Z,8.53
2018-03-17T05:17:54.044Z,8.70
2018-03-17T05:20:21.656Z,8.97
2018-03-17T05:22:49.232Z,8.47
2018-03-17T05:25:16.938Z,9.17
2018-03-17T05:27:44.535Z,8.70
2018-03-17T05:30:12.101Z,9.03
2018-03-17T05:32:39.766Z,9.27
2018-03-17T05:35:07.347Z,8.00
2018-03-17T05:37:34.935Z,8.53
2018-03-17T05:40:02.530Z,8.53
2018-03-17T05:42:30.883Z,8.40
2018-03-17T05:44:58.480Z,7.87
2018-03-17T05:47:26.035Z,7.83
2018-03-17T05:49:54.403Z,8.20
2018-03-17T05:52:21.992Z,7.60
2018-03-17T05:54:50.316Z,7.40
2018-03-17T05:57:17.914Z,7.93
2018-03-17T05:59:45.470Z,8.20
2018-03-17T06:02:13.647Z,7.43
2018-03-17T06:04:41.256Z,8.93
2018-03-17T06:07:08.851Z,9.37
2018-03-17T06:09:36.431Z,9.20
2018-03-17T06:12:04.054Z,9.23
2018-03-17T06:14:31.615Z,9.40
2018-03-17T06:16:59.198Z,8.77
2018-03-17T06:19:26.790Z,9.00
2018-03-17T06:21:54.362Z,9.37
2018-03-17T06:24:23.056Z,9.00
2018-03-17T06:26:51.423Z,10.10
2018-03-17T06:29:19.008Z,10.27
2018-03-17T06:31:47.383Z,9.60
2018-03-17T06:34:15.715Z,9.97
2018-03-17T06:36:43.307Z,9.50
2018-03-17T06:39:10.891Z,8.60
2018-03-17T06:41:38.454Z,8.93
2018-03-17T06:44:06.783Z,8.57
2018-03-17T06:46:34.371Z,9.47
2018-03-17T06:49:01.936Z,8.90
2018-03-17T06:51:29.486Z,8.60
2018-03-17T06:53:57.070Z,8.63
2018-03-17T06:56:24.628Z,8.70
2018-03-17T06:58:52.183Z,8.47
2018-03-17T07:01:20.060Z,8.80
2018-03-17T07:03:51.071Z,8.77
2018-03-17T07:06:20.372Z,8.27
2018-03-17T07:08:51.021Z,8.33
2018-03-17T07:11:18.681Z,8.13
2018-03-17T07:13:46.266Z,7.33
2018-03-17T07:16:13.858Z,7.40
2018-03-17T07:18:42.192Z,6.93
2018-03-17T07:21:09.752Z,6.60
2018-03-17T07:23:37.409Z,6.23
2018-03-17T07:26:04.967Z,5.90
2018-03-17T07:28:32.543Z,6.87
2018-03-17T07:31:00.162Z,6.47
2018-03-17T07:33:27.735Z,6.77
2018-03-17T07:35:55.299Z,7.67
2018-03-17T07:38:22.887Z,7.40
2018-03-17T07:40:50.486Z,7.23
2018-03-17T07:43:18.048Z,7.13
2018-03-17T07:45:46.400Z,7.33
2018-03-17T07:48:14.054Z,6.90
2018-03-17T07:50:41.618Z,6.83
2018-03-17T07:53:09.210Z,7.73
2018-03-17T07:55:36.786Z,7.43
2018-03-17T07:58:05.114Z,6.90
2018-03-17T08:00:32.707Z,7.83
2018-03-17T08:03:00.267Z,7.37
2018-03-17T08:05:27.831Z,7.67
2018-03-17T08:07:55.610Z,7.67
2018-03-17T08:10:23.172Z,8.10
2018-03-17T08:12:50.738Z,7.97
2018-03-17T08:15:18.710Z,7.77
2018-03-17T08:17:46.279Z,7.67
2018-03-17T08:20:14.640Z,7.30
2018-03-17T08:22:42.391Z,7.30
2018-03-17T08:25:09.952Z,7.57
2018-03-17T08:27:37.545Z,7.33
2018-03-17T08:30:05.619Z,7.83
2018-03-17T08:32:33.191Z,7.17
2018-03-17T08:35:01.521Z,7.37
2018-03-17T08:37:29.127Z,7.17
2018-03-17T08:39:56.717Z,6.70
2018-03-17T08:42:24.335Z,6.93
2018-03-17T08:44:51.927Z,6.53
2018-03-17T08:47:19.551Z,6.70
2018-03-17T08:49:47.143Z,6.70
2018-03-17T08:52:14.710Z,6.67
2018-03-17T08:54:42.346Z,5.97
2018-03-17T08:57:09.937Z,6.40
2018-03-17T08:59:37.532Z,6.23
2018-03-17T09:02:05.120Z,6.73
2018-03-17T09:04:32.690Z,6.03
2018-03-17T09:07:00.286Z,6.73
2018-03-17T09:09:27.883Z,6.43
2018-03-17T09:11:55.455Z,6.30
2018-03-17T09:14:23.028Z,5.50
2018-03-17T09:16:51.132Z,6.73
2018-03-17T09:19:18.732Z,6.17
2018-03-17T09:21:46.332Z,6.83
2018-03-17T09:24:14.029Z,6.23
2018-03-17T09:26:41.644Z,7.00
2018-03-17T09:29:09.232Z,6.17
2018-03-17T09:31:36.986Z,6.40
2018-03-17T09:34:04.563Z,6.93
2018-03-17T09:36:32.131Z,7.03
2018-03-17T09:38:59.739Z,7.07
2018-03-17T09:41:28.084Z,7.07
2018-03-17T09:43:55.664Z,8.27
2018-03-17T09:46:23.263Z,7.87
2018-03-17T09:48:50.834Z,7.77
2018-03-17T09:51:18.405Z,6.87
2018-03-17T09:53:46.315Z,8.07
2018-03-17T09:56:13.920Z,7.27
2018-03-17T09:58:41.483Z,7.63
2018-03-17T10:01:09.089Z,7.77
2018-03-17T10:03:36.702Z,7.60
2018-03-17T10:06:04.396Z,7.23
2018-03-17T10:08:31.991Z,8.37
2018-03-17T10:10:59.590Z,7.53
2018-03-17T10:13:27.158Z,7.67
2018-03-17T10:15:54.771Z,7.90
2018-03-17T10:18:22.370Z,8.03
2018-03-17T10:20:49.970Z,8.50
2018-03-17T10:23:17.567Z,8.33
2018-03-17T10:25:45.207Z,8.37
2018-03-17T10:28:12.785Z,9.20
2018-03-17T10:30:47.287Z,8.60
2018-03-17T10:33:14.913Z,8.23
2018-03-17T10:35:42.479Z,7.17
2018-03-17T10:38:10.842Z,7.43
2018-03-17T10:40:39.951Z,7.00
2018-03-17T10:43:07.555Z,6.53
2018-03-17T10:45:35.582Z,6.60
2018-03-17T10:48:03.999Z,6.97
2018-03-17T10:50:32.335Z,7.70
2018-03-17T10:52:59.943Z,6.67
2018-03-17T10:55:27.529Z,6.83
2018-03-17T10:57:55.128Z,6.43
2018-03-17T11:00:28.000Z,6.27
2018-03-17T11:02:55.683Z,6.07
2018-03-17T11:05:27.171Z,5.63
2018-03-17T11:07:54.911Z,5.07
2018-03-17T11:10:23.627Z,5.43
2018-03-17T11:12:51.462Z,4.60
2018-03-17T11:18:23.688Z,5.00
2018-03-17T11:20:51.439Z,5.70
2018-03-17T11:23:21.237Z,5.47
2018-03-17T11:25:49.021Z,5.23
2018-03-17T11:28:17.398Z,5.50
2018-03-17T11:30:47.284Z,4.87
2018-03-17T11:33:15.296Z,4.73
2018-03-17T11:35:43.835Z,4.03
2018-03-17T11:38:11.453Z,3.83
2018-03-17T11:40:39.603Z,4.87
2018-03-17T11:43:07.274Z,4.30
2018-03-17T11:45:36.612Z,3.93
2018-03-17T11:48:04.390Z,4.30
2018-03-17T11:50:32.045Z,4.10
2018-03-17T11:52:59.691Z,4.40
2018-03-17T11:55:27.373Z,4.03
2018-03-17T11:57:56.148Z,4.30
2018-03-17T12:00:24.341Z,4.47
2018-03-17T12:02:52.182Z,3.93
2018-03-17T12:05:20.183Z,4.60
2018-03-17T12:07:48.067Z,4.10
2018-03-17T12:10:15.647Z,4.53
2018-03-17T12:12:43.217Z,4.57
2018-03-17T12:15:11.097Z,3.80
2018-03-17T12:17:38.803Z,3.80
2018-03-17T12:20:06.386Z,4.03
2018-03-17T12:22:34.015Z,3.67
2018-03-17T12:25:01.583Z,3.30
2018-03-17T12:27:29.173Z,3.87
2018-03-17T12:29:56.774Z,4.10
2018-03-17T12:32:24.336Z,3.50
2018-03-17T12:34:52.479Z,4.03
2018-03-17T12:37:20.865Z,3.90
2018-03-17T12:39:48.438Z,4.30
2018-03-17T12:42:16.037Z,3.73
2018-03-17T12:44:43.615Z,4.10
2018-03-17T12:47:11.215Z,4.07
2018-03-17T12:49:38.796Z,3.97
2018-03-17T12:52:06.406Z,3.67
2018-03-17T12:54:33.966Z,4.10
2018-03-17T12:57:01.575Z,4.27
2018-03-17T12:59:29.135Z,3.40
2018-03-17T13:01:56.760Z,3.53
2018-03-17T13:04:24.324Z,3.23
2018-03-17T13:06:51.934Z,3.33
2018-03-17T13:09:19.532Z,3.40
2018-03-17T13:11:47.923Z,3.03
2018-03-17T13:14:15.619Z,3.63
2018-03-17T13:16:44.150Z,3.17
2018-03-17T13:19:23.685Z,3.73
2018-03-17T13:21:52.935Z,3.40
2018-03-17T13:24:21.640Z,3.77
2018-03-17T13:27:01.295Z,3.67
2018-03-17T13:29:28.926Z,3.37
2018-03-17T13:31:57.295Z,4.03
2018-03-17T13:34:24.951Z,3.30
2018-03-17T13:37:04.466Z,3.40
2018-03-17T13:39:32.107Z,3.50
2018-03-17T13:41:59.756Z,4.07
2018-03-17T13:44:27.840Z,3.43
2018-03-17T13:46:55.518Z,4.07
2018-03-17T13:49:23.113Z,3.20
2018-03-17T13:51:51.579Z,3.33
2018-03-17T13:54:19.362Z,3.80
2018-03-17T13:56:47.087Z,3.40
2018-03-17T13:59:15.303Z,3.73
2018-03-17T14:01:43.121Z,3.20
2018-03-17T14:04:10.819Z,3.10
2018-03-17T14:06:39.522Z,3.80
2018-03-17T14:09:07.544Z,3.63
2018-03-17T14:11:35.818Z,4.10
2018-03-17T14:14:03.441Z,3.67
2018-03-17T14:16:31.191Z,3.83
2018-03-17T14:18:58.830Z,3.60
2018-03-17T14:21:26.447Z,3.43
2018-03-17T14:23:54.795Z,3.77
2018-03-17T14:26:22.411Z,3.70
2018-03-17T14:28:50.043Z,3.67
2018-03-17T14:31:17.679Z,3.73
2018-03-17T14:33:46.075Z,3.50
2018-03-17T14:36:13.636Z,4.50
2018-03-17T14:38:41.195Z,4.30
2018-03-17T14:41:09.627Z,3.20
2018-03-17T14:43:37.233Z,3.50
2018-03-17T14:46:04.794Z,3.63
2018-03-17T14:48:33.208Z,3.93
2018-03-17T14:51:01.566Z,4.77
2018-03-17T14:53:29.179Z,3.10
2018-03-17T14:55:57.039Z,3.80
2018-03-17T14:58:24.603Z,3.67
2018-03-17T15:00:52.192Z,3.97
2018-03-17T15:03:19.795Z,3.10
2018-03-17T15:05:47.383Z,4.07
2018-03-17T15:08:15.806Z,3.80
2018-03-17T15:10:43.471Z,3.63
2018-03-17T15:13:11.057Z,3.60
2018-03-17T15:15:38.616Z,3.73
2018-03-17T15:18:06.717Z,3.53
2018-03-17T15:20:34.333Z,3.80
2018-03-17T15:23:02.007Z,4.37
2018-03-17T15:25:29.626Z,4.00
2018-03-17T15:27:57.199Z,3.93
2018-03-17T15:30:24.810Z,4.87
2018-03-17T15:32:52.397Z,14.43
2018-03-17T15:35:19.983Z,10.40
2018-03-17T15:37:47.586Z,6.60
2018-03-17T15:40:15.161Z,6.93
2018-03-17T15:42:43.503Z,4.80
2018-03-17T15:45:11.087Z,6.20
2018-03-17T15:47:38.665Z,9.17
2018-03-17T15:50:06.262Z,6.80
2018-03-17T15:52:33.874Z,7.97
2018-03-17T15:55:01.448Z,5.47
2018-03-17T15:57:29.034Z,4.37
2018-03-17T15:59:56.665Z,4.37
2018-03-17T16:02:24.272Z,4.10
2018-03-17T16:04:52.142Z,3.90
2018-03-17T16:07:19.696Z,3.50
2018-03-17T16:09:47.322Z,3.40
2018-03-17T16:12:14.916Z,3.60
2018-03-17T16:14:42.487Z,3.83
2018-03-17T16:17:10.081Z,2.97
2018-03-17T16:19:37.643Z,3.10
2018-03-17T16:22:05.358Z,3.80
2018-03-17T16:24:33.448Z,3.60
2018-03-17T16:27:01.010Z,3.53
2018-03-17T16:29:29.331Z,2.93
2018-03-17T16:31:57.467Z,2.80
2018-03-17T16:34:25.057Z,2.77
2018-03-17T16:36:52.634Z,2.93
2018-03-17T16:39:20.447Z,4.47
2018-03-17T16:41:48.008Z,3.97
2018-03-17T16:44:15.577Z,2.83
2018-03-17T16:46:44.640Z,2.93
2018-03-17T16:49:12.181Z,3.43
2018-03-17T16:51:39.780Z,3.27
2018-03-17T16:54:07.419Z,3.43
2018-03-17T16:56:35.351Z,3.30
2018-03-17T16:59:02.943Z,2.87
2018-03-17T17:01:30.510Z,3.20
2018-03-17T17:03:58.454Z,3.33
2018-03-17T17:06:26.015Z,2.97
2018-03-17T17:08:54.370Z,3.23
2018-03-17T17:11:22.006Z,2.83
2018-03-17T17:13:49.585Z,2.90
2018-03-17T17:16:17.181Z,2.83
2018-03-17T17:18:45.517Z,2.93
2018-03-17T17:21:13.430Z,3.80
2018-03-17T17:23:42.120Z,3.47
2018-03-17T17:26:10.463Z,4.17
2018-03-17T17:28:38.074Z,4.17
2018-03-17T17:31:06.424Z,3.10
2018-03-17T17:33:33.987Z,3.53
2018-03-17T17:36:01.597Z,4.17
2018-03-17T17:38:29.155Z,3.20
2018-03-17T17:40:56.734Z,4.33
2018-03-17T17:43:24.811Z,3.80
2018-03-17T17:45:52.482Z,4.17
2018-03-17T17:48:20.015Z,4.03
2018-03-17T17:50:48.373Z,3.77
2018-03-17T17:53:16.202Z,3.90
2018-03-17T17:55:43.799Z,3.53
2018-03-17T17:58:11.366Z,3.00
2018-03-17T18:00:39.203Z,3.77
2018-03-17T18:03:06.781Z,3.60
2018-03-17T18:05:34.367Z,3.27
2018-03-17T18:08:02.190Z,4.53
2018-03-17T18:10:32.699Z,4.07
2018-03-17T18:13:00.279Z,4.53
2018-03-17T18:15:28.087Z,3.80
2018-03-17T18:17:55.647Z,3.80
2018-03-17T18:20:23.231Z,3.80
2018-03-17T18:22:51.622Z,4.33
2018-03-17T18:25:19.890Z,4.10
2018-03-17T18:27:47.451Z,4.00
2018-03-17T18:30:15.834Z,3.70
2018-03-17T18:32:43.450Z,3.77
2018-03-17T18:35:11.043Z,4.03
2018-03-17T18:37:39.131Z,4.37
2018-03-17T18:40:06.739Z,4.73
2018-03-17T18:42:34.336Z,4.93
2018-03-17T18:45:02.355Z,4.63
2018-03-17T18:47:30.191Z,4.57
2018-03-17T18:49:57.801Z,5.00
2018-03-17T18:52:25.432Z,4.33
2018-03-17T18:54:53.766Z,4.97
2018-03-17T18:57:21.346Z,4.90
2018-03-17T18:59:48.947Z,4.40
2018-03-17T19:02:17.462Z,4.07
2018-03-17T19:04:45.081Z,4.87
2018-03-17T19:07:13.423Z,4.57
2018-03-17T19:09:41.071Z,5.00
2018-03-17T19:12:08.684Z,4.87
2018-03-17T19:14:36.252Z,4.47
2018-03-17T19:17:04.625Z,4.83
2018-03-17T19:19:32.192Z,4.90
2018-03-17T19:22:00.560Z,5.03
2018-03-17T19:24:28.152Z,4.40
2018-03-17T19:26:56.910Z,4.30
2018-03-17T19:29:24.700Z,4.93
2018-03-17T19:31:52.330Z,4.70
2018-03-17T19:34:19.930Z,5.40
2018-03-17T19:36:48.280Z,5.67
2018-03-17T19:39:15.863Z,5.20
2018-03-17T19:41:44.224Z,4.50
2018-03-17T19:44:11.837Z,5.40
2018-03-17T19:46:40.238Z,4.47
2018-03-17T19:49:07.811Z,4.97
2018-03-17T19:51:35.403Z,5.00
2018-03-17T19:54:02.986Z,4.70
2018-03-17T19:56:31.854Z,5.13
2018-03-17T19:58:59.436Z,4.97
2018-03-17T20:01:27.062Z,5.60
2018-03-17T20:03:54.667Z,4.67
2018-03-17T20:06:23.523Z,4.83
2018-03-17T20:08:51.148Z,4.87
2018-03-17T20:11:18.722Z,4.60
2018-03-17T20:13:46.338Z,4.60
2018-03-17T20:16:13.938Z,4.97
2018-03-17T20:18:41.500Z,4.90
2018-03-17T20:21:09.940Z,4.73
2018-03-17T20:23:37.694Z,5.33
2018-03-17T20:26:05.287Z,5.97
2018-03-17T20:28:32.891Z,5.70
2018-03-17T20:31:00.485Z,5.23
2018-03-17T20:33:28.092Z,5.50
2018-03-17T20:35:55.717Z,5.77
2018-03-17T20:38:23.300Z,5.30
2018-03-17T20:40:50.894Z,5.40
2018-03-17T20:43:18.483Z,6.43
2018-03-17T20:45:46.091Z,5.77
2018-03-17T20:48:14.480Z,6.23
2018-03-17T20:50:42.427Z,5.53
2018-03-17T20:53:10.023Z,5.63
2018-03-17T20:55:37.608Z,5.60
2018-03-17T20:58:05.444Z,5.80
2018-03-17T21:00:33.056Z,5.77
2018-03-17T21:03:00.654Z,6.27
2018-03-17T21:05:29.014Z,5.63
2018-03-17T21:07:56.607Z,5.70
2018-03-17T21:10:24.182Z,6.70
2018-03-17T21:12:51.769Z,6.73
2018-03-17T21:15:20.029Z,5.57
2018-03-17T21:17:47.608Z,5.87
2018-03-17T21:20:15.212Z,6.37
2018-03-17T21:22:42.823Z,5.63
2018-03-17T21:25:10.662Z,6.73
2018-03-17T21:27:38.996Z,6.43
2018-03-17T21:30:06.579Z,5.60
2018-03-17T21:32:34.196Z,6.70
2018-03-17T21:35:01.911Z,6.70
2018-03-17T21:37:30.102Z,6.60
2018-03-17T21:39:57.703Z,6.50
2018-03-17T21:42:25.301Z,6.77
2018-03-17T21:44:53.193Z,6.67
2018-03-17T21:47:20.764Z,6.10
2018-03-17T21:49:48.339Z,6.53
2018-03-17T21:52:15.937Z,6.20
2018-03-17T21:54:43.543Z,7.57
2018-03-17T21:57:11.124Z,6.97
2018-03-17T21:59:38.687Z,6.73
2018-03-17T22:02:07.054Z,6.07
2018-03-17T22:04:34.623Z,6.70
2018-03-17T22:07:02.237Z,7.17
2018-03-17T22:09:29.811Z,6.93
2018-03-17T22:11:57.815Z,6.80
2018-03-17T22:14:25.378Z,7.07
2018-03-17T22:16:52.965Z,8.50
2018-03-17T22:19:21.112Z,6.63
2018-03-17T22:21:48.706Z,7.97
2018-03-17T22:24:16.323Z,6.70
2018-03-17T22:26:44.341Z,6.90
2018-03-17T22:29:12.685Z,7.03
2018-03-17T22:31:40.265Z,7.50
2018-03-17T22:34:08.630Z,6.40
2018-03-17T22:36:37.709Z,7.67
2018-03-17T22:39:05.392Z,6.50
2018-03-17T22:41:33.038Z,6.63
2018-03-17T22:44:00.946Z,6.07
2018-03-17T22:46:28.534Z,7.03
2018-03-17T22:48:56.132Z,6.63
2018-03-17T22:51:23.728Z,7.23
2018-03-17T22:53:51.330Z,6.97
2018-03-17T22:56:18.923Z,7.33
2018-03-17T22:58:46.514Z,6.50
2018-03-17T23:01:14.175Z,6.10
2018-03-17T23:03:41.746Z,6.20
2018-03-17T23:06:09.335Z,6.20
2018-03-17T23:08:37.163Z,6.53
2018-03-17T23:11:04.742Z,6.30
2018-03-17T23:13:33.091Z,6.70
2018-03-17T23:16:00.978Z,7.30
2018-03-17T23:18:28.553Z,6.57
2018-03-17T23:20:56.139Z,7.07
2018-03-17T23:23:23.735Z,7.50
2018-03-17T23:25:51.640Z,7.00
2018-03-17T23:28:19.243Z,7.60
2018-03-17T23:30:46.802Z,6.97
2018-03-17T23:33:14.838Z,6.80
2018-03-17T23:35:42.444Z,7.40
2018-03-17T23:38:10.188Z,7.03
2018-03-17T23:40:38.605Z,6.80
2018-03-17T23:43:06.227Z,6.77
2018-03-17T23:45:33.840Z,6.50
2018-03-17T23:48:01.515Z,6.67
2018-03-17T23:50:29.154Z,6.97
2018-03-17T23:52:57.585Z,5.80
2018-03-17T23:55:25.208Z,6.00
2018-03-17T23:57:52.826Z,6.23
